sensor_id;sensor_type;location;lat;lon;timestamp;temperature;humidity
6662;DHT22;3367;48.714;8.994;2023-02-01T00:00:08;2.50;1.00
6662;DHT22;3367;48.714;8.994;2023-02-01T00:02:35;2.50;1.00
6662;DHT22;3367;48.714;8.994;2023-02-01T00:05:07;2.40;1.00
6662;DHT22;3367;48.714;8.994;2023-02-01T00:07:34;2.40;1.00
6662;DHT22;3367;48.714;8.994;2023-02-01T00:10:00;2.40;62.80
6662;DHT22;3367;48.714;8.994;2023-02-01T00:12:29;2.50;96.60
6662;DHT22;3367;48.714;8.994;2023-02-01T00:14:55;2.50;99.90
6662;DHT22;3367;48.714;8.994;2023-02-01T00:17:22;2.50;99.90
6662;DHT22;3367;48.714;8.994;2023-02-01T00:19:49;2.50;99.90
6662;DHT22;3367;48.714;8.994;2023-02-01T00:22:17;2.50;99.90
6662;DHT22;3367;48.714;8.994;2023-02-01T00:24:44;2.50;99.90
6662;DHT22;3367;48.714;8.994;2023-02-01T00:27:10;2.50;80.60
6662;DHT22;3367;48.714;8.994;2023-02-01T00:29:43;2.50;11.40
6662;DHT22;3367;48.714;8.994;2023-02-01T00:32:10;2.50;1.00
6662;DHT22;3367;48.714;8.994;2023-02-01T00:34:37;2.50;1.00
6662;DHT22;3367;48.714;8.994;2023-02-01T00:37:03;2.50;1.00
6662;DHT22;3367;48.714;8.994;2023-02-01T00:39:31;2.50;1.00
6662;DHT22;3367;48.714;8.994;2023-02-01T00:41:59;2.50;1.00
6662;DHT22;3367;48.714;8.994;2023-02-01T00:44:26;2.50;1.00
6662;DHT22;3367;48.714;8.994;2023-02-01T00:46:53;2.50;1.00
6662;DHT22;3367;48.714;8.994;2023-02-01T00:49:20;2.50;1.00
6662;DHT22;3367;48.714;8.994;2023-02-01T00:51:47;2.50;1.00
6662;DHT22;3367;48.714;8.994;2023-02-01T00:54:13;2.50;1.00
6662;DHT22;3367;48.714;8.994;2023-02-01T00:56:41;2.50;1.00
6662;DHT22;3367;48.714;8.994;2023-02-01T00:59:11;2.50;1.00
6662;DHT22;3367;48.714;8.994;2023-02-01T01:01:37;2.50;1.00
6662;DHT22;3367;48.714;8.994;2023-02-01T01:04:04;2.50;1.00
6662;DHT22;3367;48.714;8.994;2023-02-01T01:06:33;2.50;1.00
6662;DHT22;3367;48.714;8.994;2023-02-01T01:09:02;2.50;1.00
6662;DHT22;3367;48.714;8.994;2023-02-01T01:11:31;2.50;1.00
6662;DHT22;3367;48.714;8.994;2023-02-01T01:14:00;2.50;1.00
6662;DHT22;3367;48.714;8.994;2023-02-01T01:16:29;2.50;99.90
6662;DHT22;3367;48.714;8.994;2023-02-01T01:18:56;2.50;99.90
6662;DHT22;3367;48.714;8.994;2023-02-01T01:21:23;2.50;99.90
6662;DHT22;3367;48.714;8.994;2023-02-01T01:23:50;2.50;99.90
6662;DHT22;3367;48.714;8.994;2023-02-01T01:26:19;2.50;99.90
6662;DHT22;3367;48.714;8.994;2023-02-01T01:28:46;2.50;99.90
6662;DHT22;3367;48.714;8.994;2023-02-01T01:31:15;2.50;99.90
6662;DHT22;3367;48.714;8.994;2023-02-01T01:33:43;2.50;99.90
6662;DHT22;3367;48.714;8.994;2023-02-01T01:36:11;2.50;99.90
6662;DHT22;3367;48.714;8.994;2023-02-01T01:38:38;2.50;99.90
6662;DHT22;3367;48.714;8.994;2023-02-01T01:41:05;2.50;99.90
6662;DHT22;3367;48.714;8.994;2023-02-01T01:43:51;2.50;99.90
6662;DHT22;3367;48.714;8.994;2023-02-01T01:46:21;2.50;99.90
6662;DHT22;3367;48.714;8.994;2023-02-01T01:48:51;2.50;99.90
6662;DHT22;3367;48.714;8.994;2023-02-01T01:51:20;2.50;93.70
6662;DHT22;3367;48.714;8.994;2023-02-01T01:53:53;2.50;99.90
6662;DHT22;3367;48.714;8.994;2023-02-01T01:56:21;2.60;99.90
6662;DHT22;3367;48.714;8.994;2023-02-01T01:58:48;2.60;99.90
6662;DHT22;3367;48.714;8.994;2023-02-01T02:01:15;2.60;84.00
6662;DHT22;3367;48.714;8.994;2023-02-01T02:03:45;2.60;3.90
6662;DHT22;3367;48.714;8.994;2023-02-01T02:06:23;2.60;45.50
6662;DHT22;3367;48.714;8.994;2023-02-01T02:08:53;2.60;1.00
6662;DHT22;3367;48.714;8.994;2023-02-01T02:11:20;2.70;1.00
6662;DHT22;3367;48.714;8.994;2023-02-01T02:13:49;2.70;1.00
6662;DHT22;3367;48.714;8.994;2023-02-01T02:16:35;2.70;1.00
6662;DHT22;3367;48.714;8.994;2023-02-01T02:19:32;2.70;1.00
6662;DHT22;3367;48.714;8.994;2023-02-01T02:28:00;2.70;1.00
6662;DHT22;3367;48.714;8.994;2023-02-01T02:30:44;2.70;1.00
6662;DHT22;3367;48.714;8.994;2023-02-01T02:33:36;2.70;1.00
6662;DHT22;3367;48.714;8.994;2023-02-01T02:36:09;2.70;1.00
6662;DHT22;3367;48.714;8.994;2023-02-01T02:38:44;2.70;1.00
6662;DHT22;3367;48.714;8.994;2023-02-01T02:41:15;2.70;1.00
6662;DHT22;3367;48.714;8.994;2023-02-01T02:44:09;2.70;1.00
6662;DHT22;3367;48.714;8.994;2023-02-01T02:47:00;2.80;1.00
6662;DHT22;3367;48.714;8.994;2023-02-01T02:49:51;2.80;1.00
6662;DHT22;3367;48.714;8.994;2023-02-01T02:52:33;2.80;1.00
6662;DHT22;3367;48.714;8.994;2023-02-01T02:55:21;2.80;1.00
6662;DHT22;3367;48.714;8.994;2023-02-01T02:57:48;2.80;1.00
6662;DHT22;3367;48.714;8.994;2023-02-01T03:00:34;2.80;1.00
6662;DHT22;3367;48.714;8.994;2023-02-01T03:03:19;2.80;1.00
6662;DHT22;3367;48.714;8.994;2023-02-01T03:06:13;2.80;1.00
6662;DHT22;3367;48.714;8.994;2023-02-01T03:08:41;2.80;1.00
6662;DHT22;3367;48.714;8.994;2023-02-01T03:11:12;2.80;1.00
6662;DHT22;3367;48.714;8.994;2023-02-01T03:13:45;2.80;1.00
6662;DHT22;3367;48.714;8.994;2023-02-01T03:16:15;2.80;1.00
6662;DHT22;3367;48.714;8.994;2023-02-01T03:18:50;2.80;1.00
6662;DHT22;3367;48.714;8.994;2023-02-01T03:21:23;2.80;1.00
6662;DHT22;3367;48.714;8.994;2023-02-01T03:23:53;2.80;1.00
6662;DHT22;3367;48.714;8.994;2023-02-01T03:26:22;2.80;1.00
6662;DHT22;3367;48.714;8.994;2023-02-01T03:28:54;2.80;1.00
6662;DHT22;3367;48.714;8.994;2023-02-01T03:31:22;2.80;1.00
6662;DHT22;3367;48.714;8.994;2023-02-01T03:33:50;2.80;1.00
6662;DHT22;3367;48.714;8.994;2023-02-01T03:36:25;2.90;1.00
6662;DHT22;3367;48.714;8.994;2023-02-01T03:39:00;2.90;1.00
6662;DHT22;3367;48.714;8.994;2023-02-01T03:41:34;2.90;1.00
6662;DHT22;3367;48.714;8.994;2023-02-01T03:44:06;2.90;1.00
6662;DHT22;3367;48.714;8.994;2023-02-01T03:46:39;2.90;1.00
6662;DHT22;3367;48.714;8.994;2023-02-01T03:49:10;2.90;1.00
6662;DHT22;3367;48.714;8.994;2023-02-01T03:51:41;2.90;1.00
6662;DHT22;3367;48.714;8.994;2023-02-01T03:54:10;2.90;1.00
6662;DHT22;3367;48.714;8.994;2023-02-01T03:56:41;3.00;99.90
6662;DHT22;3367;48.714;8.994;2023-02-01T03:59:10;3.00;99.90
6662;DHT22;3367;48.714;8.994;2023-02-01T04:01:36;3.00;99.90
6662;DHT22;3367;48.714;8.994;2023-02-01T04:04:03;3.00;99.90
6662;DHT22;3367;48.714;8.994;2023-02-01T04:06:30;3.00;99.90
6662;DHT22;3367;48.714;8.994;2023-02-01T04:08:58;3.00;99.90
6662;DHT22;3367;48.714;8.994;2023-02-01T04:11:25;3.00;99.90
6662;DHT22;3367;48.714;8.994;2023-02-01T04:13:52;3.00;99.90
6662;DHT22;3367;48.714;8.994;2023-02-01T04:16:19;3.00;99.90
6662;DHT22;3367;48.714;8.994;2023-02-01T04:18:46;3.00;99.90
6662;DHT22;3367;48.714;8.994;2023-02-01T04:21:12;3.00;86.80
6662;DHT22;3367;48.714;8.994;2023-02-01T04:23:39;3.00;1.00
6662;DHT22;3367;48.714;8.994;2023-02-01T04:26:07;3.00;1.00
6662;DHT22;3367;48.714;8.994;2023-02-01T04:28:34;3.00;1.00
6662;DHT22;3367;48.714;8.994;2023-02-01T04:31:00;3.00;1.00
6662;DHT22;3367;48.714;8.994;2023-02-01T04:33:27;3.00;1.00
6662;DHT22;3367;48.714;8.994;2023-02-01T04:35:54;3.10;1.00
6662;DHT22;3367;48.714;8.994;2023-02-01T04:38:20;3.10;1.00
6662;DHT22;3367;48.714;8.994;2023-02-01T04:40:48;3.10;1.00
6662;DHT22;3367;48.714;8.994;2023-02-01T04:43:16;3.10;1.00
6662;DHT22;3367;48.714;8.994;2023-02-01T04:45:47;3.10;1.00
6662;DHT22;3367;48.714;8.994;2023-02-01T04:48:14;3.10;1.00
6662;DHT22;3367;48.714;8.994;2023-02-01T04:50:42;3.10;1.00
6662;DHT22;3367;48.714;8.994;2023-02-01T04:53:10;3.10;1.00
6662;DHT22;3367;48.714;8.994;2023-02-01T04:55:37;3.10;1.00
6662;DHT22;3367;48.714;8.994;2023-02-01T04:58:03;3.10;1.00
6662;DHT22;3367;48.714;8.994;2023-02-01T05:00:32;3.10;1.00
6662;DHT22;3367;48.714;8.994;2023-02-01T05:02:59;3.10;1.00
6662;DHT22;3367;48.714;8.994;2023-02-01T05:05:26;3.10;1.00
6662;DHT22;3367;48.714;8.994;2023-02-01T05:07:53;3.10;1.00
6662;DHT22;3367;48.714;8.994;2023-02-01T05:10:20;3.10;1.00
6662;DHT22;3367;48.714;8.994;2023-02-01T05:12:46;3.10;1.00
6662;DHT22;3367;48.714;8.994;2023-02-01T05:15:32;3.10;1.00
6662;DHT22;3367;48.714;8.994;2023-02-01T05:17:59;3.10;1.00
6662;DHT22;3367;48.714;8.994;2023-02-01T05:20:25;3.10;1.00
6662;DHT22;3367;48.714;8.994;2023-02-01T05:22:52;3.10;1.00
6662;DHT22;3367;48.714;8.994;2023-02-01T05:25:19;3.10;1.00
6662;DHT22;3367;48.714;8.994;2023-02-01T05:27:45;3.10;1.00
6662;DHT22;3367;48.714;8.994;2023-02-01T05:30:13;3.10;1.00
6662;DHT22;3367;48.714;8.994;2023-02-01T05:32:41;3.10;1.00
6662;DHT22;3367;48.714;8.994;2023-02-01T05:35:08;3.10;1.00
6662;DHT22;3367;48.714;8.994;2023-02-01T05:37:35;3.10;1.00
6662;DHT22;3367;48.714;8.994;2023-02-01T05:40:03;3.10;1.00
6662;DHT22;3367;48.714;8.994;2023-02-01T05:42:29;3.10;1.00
6662;DHT22;3367;48.714;8.994;2023-02-01T05:44:56;3.10;1.00
6662;DHT22;3367;48.714;8.994;2023-02-01T05:47:23;3.10;1.00
6662;DHT22;3367;48.714;8.994;2023-02-01T05:49:51;3.10;1.00
6662;DHT22;3367;48.714;8.994;2023-02-01T05:52:17;3.10;1.00
6662;DHT22;3367;48.714;8.994;2023-02-01T05:54:45;3.10;1.00
6662;DHT22;3367;48.714;8.994;2023-02-01T05:57:12;3.10;1.00
6662;DHT22;3367;48.714;8.994;2023-02-01T05:59:39;3.10;1.00
6662;DHT22;3367;48.714;8.994;2023-02-01T06:02:10;3.00;1.00
6662;DHT22;3367;48.714;8.994;2023-02-01T06:04:37;3.10;1.00
6662;DHT22;3367;48.714;8.994;2023-02-01T06:07:05;3.00;1.00
6662;DHT22;3367;48.714;8.994;2023-02-01T06:09:32;3.00;1.00
6662;DHT22;3367;48.714;8.994;2023-02-01T06:11:59;3.00;1.00
6662;DHT22;3367;48.714;8.994;2023-02-01T06:14:26;3.00;99.90
6662;DHT22;3367;48.714;8.994;2023-02-01T06:16:53;3.00;99.90
6662;DHT22;3367;48.714;8.994;2023-02-01T06:19:20;3.00;99.90
6662;DHT22;3367;48.714;8.994;2023-02-01T06:21:46;3.00;99.90
6662;DHT22;3367;48.714;8.994;2023-02-01T06:24:15;3.00;99.90
6662;DHT22;3367;48.714;8.994;2023-02-01T06:26:41;3.00;99.90
6662;DHT22;3367;48.714;8.994;2023-02-01T06:29:09;3.10;99.90
6662;DHT22;3367;48.714;8.994;2023-02-01T06:31:36;3.10;99.90
6662;DHT22;3367;48.714;8.994;2023-02-01T06:34:03;3.10;99.90
6662;DHT22;3367;48.714;8.994;2023-02-01T06:36:30;3.10;19.60
6662;DHT22;3367;48.714;8.994;2023-02-01T06:38:57;3.00;1.00
6662;DHT22;3367;48.714;8.994;2023-02-01T06:41:26;3.10;1.00
6662;DHT22;3367;48.714;8.994;2023-02-01T06:43:52;3.10;1.00
6662;DHT22;3367;48.714;8.994;2023-02-01T06:46:19;3.10;1.00
6662;DHT22;3367;48.714;8.994;2023-02-01T06:48:46;3.10;1.00
6662;DHT22;3367;48.714;8.994;2023-02-01T06:51:21;3.20;1.00
6662;DHT22;3367;48.714;8.994;2023-02-01T06:53:48;3.20;1.00
6662;DHT22;3367;48.714;8.994;2023-02-01T06:56:15;3.30;1.00
6662;DHT22;3367;48.714;8.994;2023-02-01T06:58:43;3.30;99.90
6662;DHT22;3367;48.714;8.994;2023-02-01T07:01:11;3.40;99.90
6662;DHT22;3367;48.714;8.994;2023-02-01T07:03:38;3.40;99.90
6662;DHT22;3367;48.714;8.994;2023-02-01T07:06:06;3.40;1.00
6662;DHT22;3367;48.714;8.994;2023-02-01T07:08:35;3.50;1.00
6662;DHT22;3367;48.714;8.994;2023-02-01T07:11:03;3.50;99.90
6662;DHT22;3367;48.714;8.994;2023-02-01T07:13:30;3.60;99.90
6662;DHT22;3367;48.714;8.994;2023-02-01T07:16:02;3.60;4.80
6662;DHT22;3367;48.714;8.994;2023-02-01T07:18:30;3.60;1.00
6662;DHT22;3367;48.714;8.994;2023-02-01T07:20:57;3.60;1.00
6662;DHT22;3367;48.714;8.994;2023-02-01T07:23:24;3.60;1.00
6662;DHT22;3367;48.714;8.994;2023-02-01T07:25:53;3.60;1.00
6662;DHT22;3367;48.714;8.994;2023-02-01T07:28:20;3.60;1.00
6662;DHT22;3367;48.714;8.994;2023-02-01T07:30:47;3.60;1.00
6662;DHT22;3367;48.714;8.994;2023-02-01T07:33:18;3.70;1.00
6662;DHT22;3367;48.714;8.994;2023-02-01T07:35:45;3.70;1.00
6662;DHT22;3367;48.714;8.994;2023-02-01T07:38:12;3.70;1.00
6662;DHT22;3367;48.714;8.994;2023-02-01T07:40:39;3.80;99.90
6662;DHT22;3367;48.714;8.994;2023-02-01T07:43:06;3.80;99.90
6662;DHT22;3367;48.714;8.994;2023-02-01T07:45:34;3.90;99.90
6662;DHT22;3367;48.714;8.994;2023-02-01T07:48:01;3.90;99.90
6662;DHT22;3367;48.714;8.994;2023-02-01T07:50:29;3.90;86.30
6662;DHT22;3367;48.714;8.994;2023-02-01T07:52:58;4.00;1.00
6662;DHT22;3367;48.714;8.994;2023-02-01T07:55:25;4.00;1.00
6662;DHT22;3367;48.714;8.994;2023-02-01T07:57:52;4.00;1.00
6662;DHT22;3367;48.714;8.994;2023-02-01T08:00:19;4.00;1.00
6662;DHT22;3367;48.714;8.994;2023-02-01T08:03:04;4.00;1.00
6662;DHT22;3367;48.714;8.994;2023-02-01T08:05:32;4.00;1.00
6662;DHT22;3367;48.714;8.994;2023-02-01T08:07:59;4.10;1.00
6662;DHT22;3367;48.714;8.994;2023-02-01T08:10:26;4.10;1.00
6662;DHT22;3367;48.714;8.994;2023-02-01T08:12:57;4.10;1.00
6662;DHT22;3367;48.714;8.994;2023-02-01T08:15:25;4.20;1.00
6662;DHT22;3367;48.714;8.994;2023-02-01T08:17:52;4.20;1.00
6662;DHT22;3367;48.714;8.994;2023-02-01T08:20:19;4.20;1.00
6662;DHT22;3367;48.714;8.994;2023-02-01T08:22:48;4.20;1.00
6662;DHT22;3367;48.714;8.994;2023-02-01T08:25:15;4.20;1.00
6662;DHT22;3367;48.714;8.994;2023-02-01T08:27:42;4.20;1.00
6662;DHT22;3367;48.714;8.994;2023-02-01T08:30:10;4.20;1.00
6662;DHT22;3367;48.714;8.994;2023-02-01T08:32:37;4.20;1.00
6662;DHT22;3367;48.714;8.994;2023-02-01T08:35:04;4.30;1.00
6662;DHT22;3367;48.714;8.994;2023-02-01T08:37:31;4.30;1.00
6662;DHT22;3367;48.714;8.994;2023-02-01T08:40:00;4.40;99.90
6662;DHT22;3367;48.714;8.994;2023-02-01T08:42:26;4.60;99.90
6662;DHT22;3367;48.714;8.994;2023-02-01T08:45:11;4.60;99.90
6662;DHT22;3367;48.714;8.994;2023-02-01T08:47:38;4.70;99.90
6662;DHT22;3367;48.714;8.994;2023-02-01T08:50:05;4.70;99.90
6662;DHT22;3367;48.714;8.994;2023-02-01T08:52:32;4.80;99.90
6662;DHT22;3367;48.714;8.994;2023-02-01T08:55:00;4.70;99.90
6662;DHT22;3367;48.714;8.994;2023-02-01T08:57:27;4.80;99.90
6662;DHT22;3367;48.714;8.994;2023-02-01T08:59:54;4.80;99.90
6662;DHT22;3367;48.714;8.994;2023-02-01T09:02:20;4.80;99.90
6662;DHT22;3367;48.714;8.994;2023-02-01T09:04:47;4.80;99.90
6662;DHT22;3367;48.714;8.994;2023-02-01T09:07:14;4.70;99.90
6662;DHT22;3367;48.714;8.994;2023-02-01T09:09:42;4.70;99.90
6662;DHT22;3367;48.714;8.994;2023-02-01T09:12:10;4.60;99.90
6662;DHT22;3367;48.714;8.994;2023-02-01T09:14:37;4.60;99.90
6662;DHT22;3367;48.714;8.994;2023-02-01T09:17:04;4.60;99.90
6662;DHT22;3367;48.714;8.994;2023-02-01T09:19:31;4.50;99.90
6662;DHT22;3367;48.714;8.994;2023-02-01T09:21:58;4.50;99.90
6662;DHT22;3367;48.714;8.994;2023-02-01T09:24:25;4.50;99.90
6662;DHT22;3367;48.714;8.994;2023-02-01T09:26:52;4.50;99.90
6662;DHT22;3367;48.714;8.994;2023-02-01T09:29:20;4.50;99.90
6662;DHT22;3367;48.714;8.994;2023-02-01T09:31:47;4.50;99.90
6662;DHT22;3367;48.714;8.994;2023-02-01T09:34:14;4.50;99.90
6662;DHT22;3367;48.714;8.994;2023-02-01T09:36:41;4.60;99.90
6662;DHT22;3367;48.714;8.994;2023-02-01T09:39:07;4.60;99.90
6662;DHT22;3367;48.714;8.994;2023-02-01T09:41:40;4.70;99.90
6662;DHT22;3367;48.714;8.994;2023-02-01T09:44:18;4.70;99.90
6662;DHT22;3367;48.714;8.994;2023-02-01T09:46:48;4.90;52.30
6662;DHT22;3367;48.714;8.994;2023-02-01T09:49:19;5.00;1.00
6662;DHT22;3367;48.714;8.994;2023-02-01T09:51:49;5.00;1.00
6662;DHT22;3367;48.714;8.994;2023-02-01T09:54:19;5.00;1.00
6662;DHT22;3367;48.714;8.994;2023-02-01T09:56:49;5.10;1.00
6662;DHT22;3367;48.714;8.994;2023-02-01T09:59:26;5.20;1.00
6662;DHT22;3367;48.714;8.994;2023-02-01T10:01:57;5.30;1.00
6662;DHT22;3367;48.714;8.994;2023-02-01T10:04:25;5.40;1.00
6662;DHT22;3367;48.714;8.994;2023-02-01T10:07:02;5.40;1.00
6662;DHT22;3367;48.714;8.994;2023-02-01T10:09:52;5.50;1.00
6662;DHT22;3367;48.714;8.994;2023-02-01T10:12:53;5.50;1.00
6662;DHT22;3367;48.714;8.994;2023-02-01T10:15:32;5.50;1.00
6662;DHT22;3367;48.714;8.994;2023-02-01T10:21:05;5.40;1.00
6662;DHT22;3367;48.714;8.994;2023-02-01T10:23:49;5.40;1.00
6662;DHT22;3367;48.714;8.994;2023-02-01T10:26:21;5.30;1.00
6662;DHT22;3367;48.714;8.994;2023-02-01T10:28:50;5.30;1.00
6662;DHT22;3367;48.714;8.994;2023-02-01T10:31:17;5.30;1.00
6662;DHT22;3367;48.714;8.994;2023-02-01T10:33:48;5.30;1.00
6662;DHT22;3367;48.714;8.994;2023-02-01T10:36:21;5.30;1.00
6662;DHT22;3367;48.714;8.994;2023-02-01T10:38:48;5.30;1.00
6662;DHT22;3367;48.714;8.994;2023-02-01T10:41:16;5.30;1.00
6662;DHT22;3367;48.714;8.994;2023-02-01T10:43:46;5.40;1.00
6662;DHT22;3367;48.714;8.994;2023-02-01T10:46:14;5.40;99.90
6662;DHT22;3367;48.714;8.994;2023-02-01T10:48:42;5.50;99.90
6662;DHT22;3367;48.714;8.994;2023-02-01T10:51:16;5.50;99.90
6662;DHT22;3367;48.714;8.994;2023-02-01T10:53:50;5.50;1.00
6662;DHT22;3367;48.714;8.994;2023-02-01T10:56:22;5.50;1.00
6662;DHT22;3367;48.714;8.994;2023-02-01T10:58:49;5.60;99.90
6662;DHT22;3367;48.714;8.994;2023-02-01T11:01:19;5.50;99.90
6662;DHT22;3367;48.714;8.994;2023-02-01T11:03:52;5.50;99.90
6662;DHT22;3367;48.714;8.994;2023-02-01T11:06:26;5.40;99.90
6662;DHT22;3367;48.714;8.994;2023-02-01T11:08:55;5.50;99.90
6662;DHT22;3367;48.714;8.994;2023-02-01T11:11:23;5.50;99.90
6662;DHT22;3367;48.714;8.994;2023-02-01T11:13:55;5.50;99.90
6662;DHT22;3367;48.714;8.994;2023-02-01T11:16:29;5.50;99.90
6662;DHT22;3367;48.714;8.994;2023-02-01T11:18:58;5.50;99.90
6662;DHT22;3367;48.714;8.994;2023-02-01T11:21:27;5.60;99.90
6662;DHT22;3367;48.714;8.994;2023-02-01T11:23:54;5.60;99.90
6662;DHT22;3367;48.714;8.994;2023-02-01T11:26:22;5.60;99.90
6662;DHT22;3367;48.714;8.994;2023-02-01T11:28:57;5.60;99.90
6662;DHT22;3367;48.714;8.994;2023-02-01T11:31:26;5.60;99.90
6662;DHT22;3367;48.714;8.994;2023-02-01T11:33:55;5.60;99.90
6662;DHT22;3367;48.714;8.994;2023-02-01T11:36:29;5.60;99.90
6662;DHT22;3367;48.714;8.994;2023-02-01T11:39:24;5.50;99.90
6662;DHT22;3367;48.714;8.994;2023-02-01T11:42:01;5.50;99.90
6662;DHT22;3367;48.714;8.994;2023-02-01T11:44:32;5.50;99.90
6662;DHT22;3367;48.714;8.994;2023-02-01T11:47:22;5.50;99.90
6662;DHT22;3367;48.714;8.994;2023-02-01T11:49:50;5.50;99.90
6662;DHT22;3367;48.714;8.994;2023-02-01T11:52:37;5.50;99.90
6662;DHT22;3367;48.714;8.994;2023-02-01T11:55:34;5.50;99.90
6662;DHT22;3367;48.714;8.994;2023-02-01T11:58:13;5.50;99.90
6662;DHT22;3367;48.714;8.994;2023-02-01T12:01:01;5.50;99.90
6662;DHT22;3367;48.714;8.994;2023-02-01T12:04:13;5.50;99.90
6662;DHT22;3367;48.714;8.994;2023-02-01T12:06:48;5.60;99.90
6662;DHT22;3367;48.714;8.994;2023-02-01T12:09:35;5.60;99.90
6662;DHT22;3367;48.714;8.994;2023-02-01T12:12:11;5.70;99.90
6662;DHT22;3367;48.714;8.994;2023-02-01T12:14:56;5.60;99.90
6662;DHT22;3367;48.714;8.994;2023-02-01T12:20:57;5.50;99.90
6662;DHT22;3367;48.714;8.994;2023-02-01T12:23:37;5.40;99.90
6662;DHT22;3367;48.714;8.994;2023-02-01T12:26:27;5.40;99.90
6662;DHT22;3367;48.714;8.994;2023-02-01T12:29:11;5.40;99.90
6662;DHT22;3367;48.714;8.994;2023-02-01T12:31:57;5.40;99.90
6662;DHT22;3367;48.714;8.994;2023-02-01T12:34:39;5.40;99.90
6662;DHT22;3367;48.714;8.994;2023-02-01T12:37:17;5.40;99.90
6662;DHT22;3367;48.714;8.994;2023-02-01T12:39:49;5.40;99.90
6662;DHT22;3367;48.714;8.994;2023-02-01T12:42:23;5.30;99.90
6662;DHT22;3367;48.714;8.994;2023-02-01T12:44:54;5.30;99.90
6662;DHT22;3367;48.714;8.994;2023-02-01T12:47:27;5.30;99.90
6662;DHT22;3367;48.714;8.994;2023-02-01T12:49:58;5.30;99.90
6662;DHT22;3367;48.714;8.994;2023-02-01T12:52:32;5.30;99.90
6662;DHT22;3367;48.714;8.994;2023-02-01T12:55:07;5.30;99.90
6662;DHT22;3367;48.714;8.994;2023-02-01T12:57:41;5.30;99.90
6662;DHT22;3367;48.714;8.994;2023-02-01T13:00:18;5.40;99.90
6662;DHT22;3367;48.714;8.994;2023-02-01T13:02:53;5.40;99.90
6662;DHT22;3367;48.714;8.994;2023-02-01T13:05:24;5.40;99.90
6662;DHT22;3367;48.714;8.994;2023-02-01T13:07:59;5.40;99.90
6662;DHT22;3367;48.714;8.994;2023-02-01T13:10:33;5.30;99.90
6662;DHT22;3367;48.714;8.994;2023-02-01T13:13:08;5.30;99.90
6662;DHT22;3367;48.714;8.994;2023-02-01T13:15:39;5.30;99.90
6662;DHT22;3367;48.714;8.994;2023-02-01T13:18:14;5.20;99.90
6662;DHT22;3367;48.714;8.994;2023-02-01T13:20:47;5.20;99.90
6662;DHT22;3367;48.714;8.994;2023-02-01T13:23:21;5.20;99.90
6662;DHT22;3367;48.714;8.994;2023-02-01T13:25:51;5.20;99.90
6662;DHT22;3367;48.714;8.994;2023-02-01T13:28:24;5.20;99.90
6662;DHT22;3367;48.714;8.994;2023-02-01T13:31:05;5.20;1.00
6662;DHT22;3367;48.714;8.994;2023-02-01T13:33:43;5.20;99.90
6662;DHT22;3367;48.714;8.994;2023-02-01T13:36:41;5.20;1.00
6662;DHT22;3367;48.714;8.994;2023-02-01T13:39:49;5.10;99.90
6662;DHT22;3367;48.714;8.994;2023-02-01T13:42:22;5.10;1.00
6662;DHT22;3367;48.714;8.994;2023-02-01T13:44:55;5.10;1.00
6662;DHT22;3367;48.714;8.994;2023-02-01T13:47:26;5.10;1.00
6662;DHT22;3367;48.714;8.994;2023-02-01T13:49:55;5.10;1.00
6662;DHT22;3367;48.714;8.994;2023-02-01T13:52:34;5.10;1.00
6662;DHT22;3367;48.714;8.994;2023-02-01T13:55:28;5.10;1.00
6662;DHT22;3367;48.714;8.994;2023-02-01T13:58:02;5.10;1.00
6662;DHT22;3367;48.714;8.994;2023-02-01T14:00:32;5.10;1.00
6662;DHT22;3367;48.714;8.994;2023-02-01T14:03:21;5.10;1.00
6662;DHT22;3367;48.714;8.994;2023-02-01T14:06:18;5.10;99.90
6662;DHT22;3367;48.714;8.994;2023-02-01T14:09:17;5.10;1.00
6662;DHT22;3367;48.714;8.994;2023-02-01T14:11:47;5.10;99.90
6662;DHT22;3367;48.714;8.994;2023-02-01T14:14:39;5.10;99.90
6662;DHT22;3367;48.714;8.994;2023-02-01T14:23:23;5.10;99.90
6662;DHT22;3367;48.714;8.994;2023-02-01T14:26:16;5.10;99.90
6662;DHT22;3367;48.714;8.994;2023-02-01T14:28:46;5.10;99.90
6662;DHT22;3367;48.714;8.994;2023-02-01T14:31:31;5.10;99.90
6662;DHT22;3367;48.714;8.994;2023-02-01T14:34:00;5.10;99.90
6662;DHT22;3367;48.714;8.994;2023-02-01T14:36:40;5.10;99.90
6662;DHT22;3367;48.714;8.994;2023-02-01T14:39:24;5.00;99.90
6662;DHT22;3367;48.714;8.994;2023-02-01T14:41:55;5.00;99.90
6662;DHT22;3367;48.714;8.994;2023-02-01T14:44:25;5.00;99.90
6662;DHT22;3367;48.714;8.994;2023-02-01T14:52:46;5.10;99.90
6662;DHT22;3367;48.714;8.994;2023-02-01T14:55:17;5.10;99.90
6662;DHT22;3367;48.714;8.994;2023-02-01T14:57:48;5.00;99.90
6662;DHT22;3367;48.714;8.994;2023-02-01T15:00:23;5.00;99.90
6662;DHT22;3367;48.714;8.994;2023-02-01T15:02:51;4.90;99.90
6662;DHT22;3367;48.714;8.994;2023-02-01T15:05:28;5.00;99.90
6662;DHT22;3367;48.714;8.994;2023-02-01T15:08:05;5.00;99.90
6662;DHT22;3367;48.714;8.994;2023-02-01T15:10:43;5.00;99.90
6662;DHT22;3367;48.714;8.994;2023-02-01T15:13:22;5.00;99.90
6662;DHT22;3367;48.714;8.994;2023-02-01T15:16:08;5.00;99.90
6662;DHT22;3367;48.714;8.994;2023-02-01T15:18:37;5.00;99.90
6662;DHT22;3367;48.714;8.994;2023-02-01T15:21:05;4.90;99.90
6662;DHT22;3367;48.714;8.994;2023-02-01T15:23:32;5.00;99.90
6662;DHT22;3367;48.714;8.994;2023-02-01T15:26:00;4.90;99.90
6662;DHT22;3367;48.714;8.994;2023-02-01T15:28:27;5.00;99.90
6662;DHT22;3367;48.714;8.994;2023-02-01T15:30:57;5.00;99.90
6662;DHT22;3367;48.714;8.994;2023-02-01T15:33:25;5.10;99.90
6662;DHT22;3367;48.714;8.994;2023-02-01T15:35:53;5.00;99.90
6662;DHT22;3367;48.714;8.994;2023-02-01T15:38:38;5.10;99.90
6662;DHT22;3367;48.714;8.994;2023-02-01T15:41:13;5.10;99.90
6662;DHT22;3367;48.714;8.994;2023-02-01T15:43:42;5.10;99.90
6662;DHT22;3367;48.714;8.994;2023-02-01T15:46:15;5.10;99.90
6662;DHT22;3367;48.714;8.994;2023-02-01T15:48:45;5.10;99.90
6662;DHT22;3367;48.714;8.994;2023-02-01T15:51:15;5.00;99.90
6662;DHT22;3367;48.714;8.994;2023-02-01T15:53:51;5.00;99.90
6662;DHT22;3367;48.714;8.994;2023-02-01T15:56:27;5.00;99.90
6662;DHT22;3367;48.714;8.994;2023-02-01T15:58:58;4.90;99.90
6662;DHT22;3367;48.714;8.994;2023-02-01T16:01:25;4.90;99.90
6662;DHT22;3367;48.714;8.994;2023-02-01T16:04:04;4.80;99.90
6662;DHT22;3367;48.714;8.994;2023-02-01T16:06:36;4.80;99.90
6662;DHT22;3367;48.714;8.994;2023-02-01T16:09:10;4.80;1.00
6662;DHT22;3367;48.714;8.994;2023-02-01T16:11:47;4.80;1.00
6662;DHT22;3367;48.714;8.994;2023-02-01T16:14:14;4.70;1.00
6662;DHT22;3367;48.714;8.994;2023-02-01T16:16:41;4.70;1.00
6662;DHT22;3367;48.714;8.994;2023-02-01T16:19:08;4.70;1.00
6662;DHT22;3367;48.714;8.994;2023-02-01T16:21:35;4.70;1.00
6662;DHT22;3367;48.714;8.994;2023-02-01T16:24:02;4.60;1.00
6662;DHT22;3367;48.714;8.994;2023-02-01T16:26:29;4.60;1.00
6662;DHT22;3367;48.714;8.994;2023-02-01T16:28:58;4.60;1.00
6662;DHT22;3367;48.714;8.994;2023-02-01T16:31:28;4.60;1.00
6662;DHT22;3367;48.714;8.994;2023-02-01T16:33:55;4.60;1.00
6662;DHT22;3367;48.714;8.994;2023-02-01T16:36:23;4.60;1.00
6662;DHT22;3367;48.714;8.994;2023-02-01T16:38:50;4.60;1.00
6662;DHT22;3367;48.714;8.994;2023-02-01T16:41:20;4.50;1.00
6662;DHT22;3367;48.714;8.994;2023-02-01T16:43:49;4.50;1.00
6662;DHT22;3367;48.714;8.994;2023-02-01T16:46:19;4.50;1.00
6662;DHT22;3367;48.714;8.994;2023-02-01T16:48:51;4.60;1.00
6662;DHT22;3367;48.714;8.994;2023-02-01T16:51:18;4.60;1.00
6662;DHT22;3367;48.714;8.994;2023-02-01T16:53:45;4.60;1.00
6662;DHT22;3367;48.714;8.994;2023-02-01T16:56:14;4.50;1.00
6662;DHT22;3367;48.714;8.994;2023-02-01T16:58:41;4.60;99.90
6662;DHT22;3367;48.714;8.994;2023-02-01T17:01:10;4.60;99.90
6662;DHT22;3367;48.714;8.994;2023-02-01T17:03:38;4.50;1.00
6662;DHT22;3367;48.714;8.994;2023-02-01T17:06:06;4.60;1.00
6662;DHT22;3367;48.714;8.994;2023-02-01T17:08:35;4.60;99.90
6662;DHT22;3367;48.714;8.994;2023-02-01T17:11:03;4.50;99.90
6662;DHT22;3367;48.714;8.994;2023-02-01T17:13:30;4.60;99.90
6662;DHT22;3367;48.714;8.994;2023-02-01T17:15:59;4.60;99.90
6662;DHT22;3367;48.714;8.994;2023-02-01T17:18:28;4.60;1.00